createdAt,value
2024-03-09T00:02:21.956Z,42.69
2024-03-09T00:05:07.545Z,42.73
2024-03-09T00:07:58.004Z,42.70
2024-03-09T00:10:43.916Z,42.55
2024-03-09T00:13:30.533Z,42.70
2024-03-09T00:16:16.889Z,42.76
2024-03-09T00:19:04.923Z,42.86
2024-03-09T00:21:50.418Z,42.72
2024-03-09T00:24:35.954Z,42.70
2024-03-09T00:27:27.827Z,42.67
2024-03-09T00:30:19.091Z,42.67
2024-03-09T00:33:07.793Z,42.72
2024-03-09T00:35:55.642Z,42.79
2024-03-09T00:38:42.000Z,42.76
2024-03-09T00:41:27.405Z,42.69
2024-03-09T00:44:12.752Z,42.79
2024-03-09T00:46:58.209Z,43.02
2024-03-09T00:49:44.199Z,42.78
2024-03-09T00:52:29.600Z,42.87
2024-03-09T00:55:17.855Z,42.86
2024-03-09T00:58:03.466Z,42.79
2024-03-09T01:00:49.806Z,42.78
2024-03-09T01:03:35.832Z,42.81
2024-03-09T01:06:22.165Z,42.77
2024-03-09T01:09:08.391Z,42.83
2024-03-09T01:11:54.276Z,42.79
2024-03-09T01:14:40.363Z,42.93
2024-03-09T01:17:25.978Z,42.95
2024-03-09T01:20:11.730Z,42.89
2024-03-09T01:22:57.642Z,42.76
2024-03-09T01:25:43.775Z,42.86
2024-03-09T01:28:30.269Z,42.92
2024-03-09T01:31:18.039Z,42.86
2024-03-09T01:34:06.419Z,43.05
2024-03-09T01:36:51.416Z,43.19
2024-03-09T01:39:40.282Z,43.03
2024-03-09T01:42:28.207Z,43.08
2024-03-09T01:45:13.622Z,43.19
2024-03-09T01:48:01.980Z,43.18
2024-03-09T01:50:47.922Z,43.22
2024-03-09T01:53:34.364Z,43.12
2024-03-09T01:56:20.898Z,43.22
2024-03-09T01:59:09.274Z,43.23
2024-03-09T02:01:55.849Z,43.19
2024-03-09T02:04:42.349Z,43.22
2024-03-09T02:07:27.876Z,43.37
2024-03-09T02:10:15.038Z,43.22
2024-03-09T02:13:01.393Z,43.32
2024-03-09T02:15:48.446Z,43.30
2024-03-09T02:18:34.405Z,43.23
2024-03-09T02:21:20.662Z,43.26
2024-03-09T02:24:12.564Z,43.39
2024-03-09T02:27:00.589Z,43.47
2024-03-09T02:29:47.663Z,43.28
2024-03-09T02:32:32.831Z,43.22
2024-03-09T02:35:18.298Z,43.23
2024-03-09T02:38:05.906Z,43.24
2024-03-09T02:40:51.628Z,43.28
2024-03-09T02:43:37.901Z,43.20
2024-03-09T02:46:26.702Z,43.30
2024-03-09T02:49:12.318Z,43.09
2024-03-09T02:51:57.811Z,43.23
2024-03-09T02:54:43.678Z,43.19
2024-03-09T02:57:29.172Z,43.27
2024-03-09T03:00:15.171Z,43.29
2024-03-09T03:03:19.244Z,43.27
2024-03-09T03:06:04.649Z,43.23
2024-03-09T03:08:54.496Z,43.24
2024-03-09T03:11:42.490Z,43.31
2024-03-09T03:14:27.788Z,43.28
2024-03-09T03:17:13.373Z,42.98
2024-03-09T03:19:58.945Z,43.15
2024-03-09T03:22:47.019Z,43.13
2024-03-09T03:25:32.455Z,43.14
2024-03-09T03:28:17.818Z,43.13
2024-03-09T03:31:06.484Z,43.11
2024-03-09T03:33:51.837Z,43.03
2024-03-09T03:36:39.614Z,42.97
2024-03-09T03:39:28.551Z,42.95
2024-03-09T03:42:14.278Z,42.91
2024-03-09T03:45:01.915Z,43.15
2024-03-09T03:47:47.385Z,43.05
2024-03-09T03:50:33.867Z,42.87
2024-03-09T03:53:19.161Z,43.00
2024-03-09T03:56:04.990Z,42.82
2024-03-09T03:58:50.514Z,42.83
2024-03-09T04:01:36.201Z,42.88
2024-03-09T04:04:22.995Z,42.88
2024-03-09T04:07:08.184Z,42.85
2024-03-09T04:09:55.889Z,42.96
2024-03-09T04:12:44.302Z,42.82
2024-03-09T04:15:29.865Z,42.84
2024-03-09T04:18:15.215Z,42.95
2024-03-09T04:21:03.334Z,42.83
2024-03-09T04:23:48.721Z,42.88
2024-03-09T04:26:34.336Z,42.86
2024-03-09T04:29:19.814Z,42.74
2024-03-09T04:32:08.799Z,42.76
2024-03-09T04:34:54.929Z,42.76
2024-03-09T04:37:42.283Z,42.89
2024-03-09T04:40:28.365Z,42.77
2024-03-09T04:43:14.764Z,42.81
2024-03-09T04:46:01.420Z,42.83
2024-03-09T04:48:46.818Z,42.81
2024-03-09T04:51:32.205Z,42.88
2024-03-09T04:54:19.978Z,42.83
2024-03-09T04:57:06.017Z,42.78
2024-03-09T04:59:51.857Z,42.81
2024-03-09T05:02:37.365Z,42.83
2024-03-09T05:05:22.917Z,42.74
2024-03-09T05:08:09.536Z,43.12
2024-03-09T05:10:55.696Z,43.43
2024-03-09T05:13:41.052Z,43.62
2024-03-09T05:16:26.474Z,43.62
2024-03-09T05:19:12.039Z,43.56
2024-03-09T05:21:58.151Z,43.45
2024-03-09T05:24:43.852Z,43.65
2024-03-09T05:27:29.193Z,43.45
2024-03-09T05:30:16.509Z,43.36
2024-03-09T05:33:08.195Z,43.21
2024-03-09T05:35:53.520Z,43.22
2024-03-09T05:38:39.783Z,42.77
2024-03-09T05:41:25.423Z,42.58
2024-03-09T05:44:10.884Z,42.87
2024-03-09T05:46:56.583Z,42.73
2024-03-09T05:49:42.020Z,42.85
2024-03-09T05:52:27.719Z,42.78
2024-03-09T05:55:13.414Z,42.68
2024-03-09T05:57:59.364Z,42.68
2024-03-09T06:00:45.498Z,43.01
2024-03-09T06:03:31.167Z,42.86
2024-03-09T06:06:17.262Z,42.90
2024-03-09T06:09:02.947Z,43.14
2024-03-09T06:11:49.458Z,43.35
2024-03-09T06:14:34.920Z,43.50
2024-03-09T06:17:20.421Z,43.26
2024-03-09T06:20:06.419Z,43.27
2024-03-09T06:22:51.816Z,43.29
2024-03-09T06:25:37.073Z,43.54
2024-03-09T06:28:22.447Z,39.87
2024-03-09T06:31:09.890Z,38.85
2024-03-09T06:33:55.329Z,36.96
2024-03-09T06:36:40.702Z,37.19
2024-03-09T06:39:31.897Z,36.71
2024-03-09T06:42:22.613Z,36.37
2024-03-09T06:45:09.403Z,37.35
2024-03-09T06:47:55.546Z,38.21
2024-03-09T06:50:45.739Z,38.52
2024-03-09T06:53:31.764Z,38.70
2024-03-09T06:56:19.097Z,39.15
2024-03-09T06:59:05.059Z,39.32
2024-03-09T07:01:53.271Z,39.57
2024-03-09T07:04:39.095Z,39.55
2024-03-09T07:07:24.610Z,39.74
2024-03-09T07:10:13.350Z,40.10
2024-03-09T07:12:58.974Z,40.36
2024-03-09T07:15:44.572Z,40.29
2024-03-09T07:18:34.620Z,40.24
2024-03-09T07:21:21.909Z,40.23
2024-03-09T07:24:08.565Z,39.70
2024-03-09T07:26:54.714Z,39.54
2024-03-09T07:29:42.485Z,39.00
2024-03-09T07:32:27.824Z,38.60
2024-03-09T07:35:16.089Z,37.99
2024-03-09T07:38:02.469Z,36.33
2024-03-09T07:40:48.813Z,36.00
2024-03-09T07:43:37.559Z,35.87
2024-03-09T07:46:22.802Z,35.48
2024-03-09T07:49:08.674Z,35.32
2024-03-09T07:51:54.164Z,34.98
2024-03-09T07:54:40.447Z,35.51
2024-03-09T07:57:25.783Z,35.43
2024-03-09T08:00:18.922Z,35.68
2024-03-09T08:03:04.557Z,37.21
2024-03-09T08:05:50.932Z,36.92
2024-03-09T08:08:36.624Z,37.15
2024-03-09T08:11:24.185Z,37.43
2024-03-09T08:14:10.239Z,37.79
2024-03-09T08:16:56.805Z,37.93
2024-03-09T08:19:43.780Z,39.12
2024-03-09T08:22:29.795Z,39.41
2024-03-09T08:25:17.441Z,39.31
2024-03-09T08:28:03.105Z,39.19
2024-03-09T08:30:49.007Z,38.95
2024-03-09T08:33:34.762Z,39.13
2024-03-09T08:36:24.187Z,39.17
2024-03-09T08:39:13.545Z,39.27
2024-03-09T08:42:00.949Z,39.27
2024-03-09T08:44:47.343Z,39.31
2024-03-09T08:47:33.594Z,39.11
2024-03-09T08:50:23.489Z,39.15
2024-03-09T08:53:09.736Z,39.30
2024-03-09T08:55:55.944Z,39.09
2024-03-09T08:58:42.481Z,39.15
2024-03-09T09:01:28.510Z,39.18
2024-03-09T09:04:13.921Z,39.06
2024-03-09T09:07:01.264Z,39.08
2024-03-09T09:09:47.117Z,38.91
2024-03-09T09:12:35.783Z,39.07
2024-03-09T09:15:23.157Z,39.15
2024-03-09T09:18:10.596Z,39.12
2024-03-09T09:20:55.970Z,38.97
2024-03-09T09:23:42.144Z,39.16
2024-03-09T09:26:30.056Z,39.31
2024-03-09T09:29:15.909Z,38.92
2024-03-09T09:32:02.323Z,38.81
2024-03-09T09:34:48.123Z,39.20
2024-03-09T09:37:35.379Z,39.13
2024-03-09T09:40:22.316Z,39.10
2024-03-09T09:43:09.629Z,39.11
2024-03-09T09:46:01.923Z,39.06
2024-03-09T09:48:53.710Z,39.03
2024-03-09T09:51:41.692Z,39.01
2024-03-09T09:54:28.866Z,38.88
2024-03-09T09:57:15.885Z,39.10
2024-03-09T10:00:01.264Z,39.13
2024-03-09T10:02:50.042Z,39.13
2024-03-09T10:05:40.487Z,39.10
2024-03-09T10:08:25.853Z,38.78
2024-03-09T10:11:16.335Z,39.09
2024-03-09T10:14:02.682Z,39.19
2024-03-09T10:16:49.677Z,39.32
2024-03-09T10:19:38.944Z,38.91
2024-03-09T10:22:27.219Z,38.81
2024-03-09T10:25:26.225Z,38.41
2024-03-09T10:28:12.466Z,38.14
2024-03-09T10:31:03.470Z,38.21
2024-03-09T10:33:56.073Z,37.93
2024-03-09T10:36:41.661Z,37.64
2024-03-09T10:39:28.454Z,37.78
2024-03-09T10:42:19.204Z,37.86
2024-03-09T10:45:05.287Z,38.48
2024-03-09T10:47:55.282Z,38.37
2024-03-09T10:50:45.318Z,38.40
2024-03-09T10:53:54.621Z,38.54
2024-03-09T10:56:43.851Z,38.36
2024-03-09T10:59:31.575Z,38.76
2024-03-09T11:02:18.557Z,38.78
2024-03-09T11:05:06.698Z,38.75
2024-03-09T11:07:53.289Z,38.83
2024-03-09T11:10:43.139Z,38.78
2024-03-09T11:13:31.978Z,38.62
2024-03-09T11:16:21.384Z,38.71
2024-03-09T11:19:09.852Z,38.53
2024-03-09T11:21:57.053Z,38.61
2024-03-09T11:24:42.530Z,38.54
2024-03-09T11:27:32.354Z,38.40
2024-03-09T11:30:20.618Z,38.37
2024-03-09T11:33:06.147Z,38.05
2024-03-09T11:35:53.421Z,38.50
2024-03-09T11:38:41.144Z,38.92
2024-03-09T11:41:27.706Z,39.31
2024-03-09T11:44:37.969Z,39.27
2024-03-09T11:47:23.576Z,39.56
2024-03-09T11:50:09.361Z,40.14
2024-03-09T11:52:56.307Z,39.81
2024-03-09T11:55:43.055Z,39.96
2024-03-09T11:58:28.452Z,40.35
2024-03-09T12:01:15.291Z,40.40
2024-03-09T12:04:02.613Z,40.38
2024-03-09T12:06:49.308Z,39.23
2024-03-09T12:09:34.889Z,38.95
2024-03-09T12:12:20.198Z,38.11
2024-03-09T12:15:07.290Z,39.70
2024-03-09T12:17:53.677Z,39.25
2024-03-09T12:20:39.643Z,39.76
2024-03-09T12:23:25.732Z,39.89
2024-03-09T12:26:12.056Z,40.55
2024-03-09T12:29:04.845Z,39.82
2024-03-09T12:31:50.635Z,39.48
2024-03-09T12:34:38.108Z,39.45
2024-03-09T12:37:27.805Z,39.62
2024-03-09T12:40:20.763Z,39.45
2024-03-09T12:43:07.043Z,39.65
2024-03-09T12:45:56.706Z,39.55
2024-03-09T12:48:42.358Z,39.32
2024-03-09T12:51:28.146Z,39.23
2024-03-09T12:54:14.500Z,39.40
2024-03-09T12:57:04.371Z,39.33
2024-03-09T12:59:51.733Z,39.39
2024-03-09T13:02:37.773Z,39.29
2024-03-09T13:05:25.134Z,39.46
2024-03-09T13:08:13.261Z,39.55
2024-03-09T13:10:59.188Z,39.47
2024-03-09T13:13:47.378Z,39.48
2024-03-09T13:16:33.523Z,39.45
2024-03-09T13:19:18.996Z,39.20
2024-03-09T13:22:07.117Z,39.34
2024-03-09T13:24:53.515Z,39.29
2024-03-09T13:27:39.803Z,39.48
2024-03-09T13:30:28.282Z,39.29
2024-03-09T13:33:16.816Z,39.24
2024-03-09T13:36:02.144Z,39.09
2024-03-09T13:38:50.258Z,39.14
2024-03-09T13:41:35.284Z,39.03
2024-03-09T13:44:25.417Z,38.86
2024-03-09T13:47:13.263Z,38.88
2024-03-09T13:49:59.093Z,38.76
2024-03-09T13:52:44.456Z,38.45
2024-03-09T13:55:30.883Z,38.62
2024-03-09T13:58:22.239Z,38.68
2024-03-09T14:01:14.887Z,38.42
2024-03-09T14:03:59.977Z,38.69
2024-03-09T14:06:57.345Z,38.26
2024-03-09T14:09:53.066Z,39.65
2024-03-09T14:12:38.242Z,39.04
2024-03-09T14:15:23.955Z,38.79
2024-03-09T14:18:15.667Z,38.80
2024-03-09T14:21:07.716Z,38.44
2024-03-09T14:23:53.596Z,38.85
2024-03-09T14:26:39.383Z,39.13
2024-03-09T14:29:26.347Z,39.10
2024-03-09T14:32:12.223Z,40.32
2024-03-09T14:34:57.594Z,39.54
2024-03-09T14:37:46.510Z,38.80
2024-03-09T14:40:38.284Z,38.60
2024-03-09T14:43:24.793Z,38.96
2024-03-09T14:46:13.158Z,38.85
2024-03-09T14:48:58.475Z,39.15
2024-03-09T14:51:45.205Z,38.62
2024-03-09T14:54:30.928Z,38.58
2024-03-09T14:57:16.301Z,38.54
2024-03-09T15:00:15.368Z,38.61
2024-03-09T15:03:02.521Z,38.68
2024-03-09T15:05:52.427Z,38.38
2024-03-09T15:08:38.704Z,38.16
2024-03-09T15:11:24.330Z,38.27
2024-03-09T15:14:09.860Z,38.30
2024-03-09T15:16:56.989Z,38.05
2024-03-09T15:19:43.044Z,40.89
2024-03-09T15:22:29.976Z,38.97
2024-03-09T15:25:16.688Z,39.02
2024-03-09T15:28:04.409Z,39.32
2024-03-09T15:30:50.971Z,38.92
2024-03-09T15:33:39.108Z,39.16
2024-03-09T15:36:25.585Z,39.31
2024-03-09T15:39:12.603Z,39.06
2024-03-09T15:41:59.366Z,39.66
2024-03-09T15:44:45.526Z,39.32
2024-03-09T15:47:30.891Z,39.38
2024-03-09T15:50:26.953Z,39.19
2024-03-09T15:53:16.593Z,39.15
2024-03-09T15:56:02.732Z,39.08
2024-03-09T15:58:48.615Z,38.66
2024-03-09T16:01:36.718Z,38.67
2024-03-09T16:04:22.547Z,38.72
2024-03-09T16:07:14.266Z,38.74
2024-03-09T16:09:59.597Z,38.75
2024-03-09T16:12:44.951Z,38.97
2024-03-09T16:15:31.727Z,38.70
2024-03-09T16:18:18.535Z,38.75
2024-03-09T16:21:08.492Z,38.66
2024-03-09T16:23:55.275Z,38.88
2024-03-09T16:26:41.015Z,38.56
2024-03-09T16:29:26.392Z,38.56
2024-03-09T16:32:17.689Z,38.69
2024-03-09T16:35:04.019Z,38.99
2024-03-09T16:37:52.498Z,39.65
2024-03-09T16:40:40.113Z,38.81
2024-03-09T16:43:31.401Z,39.17
2024-03-09T16:46:21.550Z,38.95
2024-03-09T16:49:07.165Z,38.87
2024-03-09T16:52:02.532Z,38.69
2024-03-09T16:54:49.051Z,38.93
2024-03-09T16:57:36.323Z,38.92
2024-03-09T17:00:26.409Z,39.15
2024-03-09T17:03:11.922Z,39.31
2024-03-09T17:05:57.905Z,38.82
2024-03-09T17:08:45.285Z,38.58
2024-03-09T17:11:32.139Z,38.40
2024-03-09T17:14:19.587Z,38.59
2024-03-09T17:17:07.130Z,38.75
2024-03-09T17:19:53.137Z,38.86
2024-03-09T17:22:45.228Z,38.58
2024-03-09T17:25:35.179Z,38.89
2024-03-09T17:28:22.321Z,38.98
2024-03-09T17:31:09.417Z,38.71
2024-03-09T17:33:56.296Z,38.45
2024-03-09T17:36:42.798Z,38.66
2024-03-09T17:39:30.351Z,38.62
2024-03-09T17:42:15.910Z,38.55
2024-03-09T17:45:01.258Z,38.25
2024-03-09T17:47:46.734Z,38.52
2024-03-09T17:50:33.578Z,38.29
2024-03-09T17:53:19.197Z,38.60
2024-03-09T17:56:07.571Z,38.39
2024-03-09T17:58:53.036Z,38.52
2024-03-09T18:01:38.634Z,37.67
2024-03-09T18:04:24.369Z,38.35
2024-03-09T18:07:12.183Z,38.48
2024-03-09T18:09:59.808Z,38.38
2024-03-09T18:12:44.853Z,38.63
2024-03-09T18:15:34.377Z,38.33
2024-03-09T18:18:22.473Z,38.33
2024-03-09T18:21:08.479Z,38.19
2024-03-09T18:23:53.843Z,38.31
2024-03-09T18:26:39.392Z,38.41
2024-03-09T18:29:24.965Z,37.97
2024-03-09T18:32:11.492Z,38.06
2024-03-09T18:34:57.487Z,38.75
2024-03-09T18:37:44.997Z,37.94
2024-03-09T18:40:30.594Z,38.04
2024-03-09T18:43:16.442Z,37.18
2024-03-09T18:46:02.575Z,37.23
2024-03-09T18:48:48.038Z,37.47
2024-03-09T18:51:33.960Z,37.22
2024-03-09T18:54:19.036Z,37.43
2024-03-09T18:57:04.974Z,37.18
2024-03-09T18:59:51.471Z,37.48
2024-03-09T19:02:37.220Z,37.62
2024-03-09T19:05:24.042Z,38.03
2024-03-09T19:08:11.531Z,37.67
2024-03-09T19:10:57.554Z,37.23
2024-03-09T19:13:44.442Z,37.29
2024-03-09T19:16:29.897Z,37.30
2024-03-09T19:19:15.291Z,37.46
2024-03-09T19:22:00.619Z,37.58
2024-03-09T19:24:46.063Z,37.45
2024-03-09T19:27:31.509Z,37.83
2024-03-09T19:30:18.706Z,38.08
2024-03-09T19:33:05.449Z,38.42
2024-03-09T19:35:56.177Z,37.69
2024-03-09T19:38:42.079Z,38.05
2024-03-09T19:41:27.597Z,37.93
2024-03-09T19:44:14.910Z,37.92
2024-03-09T19:47:00.435Z,38.00
2024-03-09T19:49:45.758Z,38.19
2024-03-09T19:52:32.076Z,38.10
2024-03-09T19:55:20.557Z,38.15
2024-03-09T19:58:06.196Z,38.06
2024-03-09T20:00:52.258Z,38.25
2024-03-09T20:03:40.815Z,38.86
2024-03-09T20:06:28.165Z,38.47
2024-03-09T20:09:16.411Z,38.57
2024-03-09T20:12:04.817Z,38.10
2024-03-09T20:14:50.511Z,37.85
2024-03-09T20:17:36.013Z,37.55
2024-03-09T20:20:26.285Z,37.48
2024-03-09T20:23:12.954Z,37.87
2024-03-09T20:26:01.015Z,38.32
2024-03-09T20:28:49.038Z,38.18
2024-03-09T20:31:34.507Z,38.27
2024-03-09T20:34:20.047Z,38.62
2024-03-09T20:37:05.438Z,38.26
2024-03-09T20:39:51.706Z,38.44
2024-03-09T20:42:37.013Z,38.46
2024-03-09T20:45:22.981Z,38.31
2024-03-09T20:48:08.454Z,38.93
2024-03-09T20:50:54.175Z,39.64
2024-03-09T20:53:48.527Z,39.05
2024-03-09T20:56:35.648Z,38.91
2024-03-09T20:59:25.411Z,39.00
2024-03-09T21:02:18.764Z,38.89
2024-03-09T21:05:05.347Z,38.83
2024-03-09T21:07:50.983Z,38.98
2024-03-09T21:10:36.934Z,39.10
2024-03-09T21:13:24.194Z,38.85
2024-03-09T21:16:11.303Z,39.03
2024-03-09T21:18:56.888Z,38.94
2024-03-09T21:21:42.135Z,39.06
2024-03-09T21:24:27.476Z,38.95
2024-03-09T21:27:13.661Z,39.27
2024-03-09T21:29:58.856Z,39.46
2024-03-09T21:32:48.129Z,39.41
2024-03-09T21:35:34.923Z,39.34
2024-03-09T21:38:20.434Z,39.55
2024-03-09T21:41:08.782Z,39.45
2024-03-09T21:43:54.127Z,39.40
2024-03-09T21:46:40.227Z,39.55
2024-03-09T21:49:27.390Z,39.46
2024-03-09T21:52:14.382Z,39.27
2024-03-09T21:55:00.206Z,39.61
2024-03-09T21:57:45.713Z,39.21
2024-03-09T22:00:31.128Z,39.16
2024-03-09T22:03:16.530Z,38.82
2024-03-09T22:06:03.263Z,39.56
2024-03-09T22:08:48.672Z,39.65
2024-03-09T22:11:34.531Z,38.85
2024-03-09T22:14:19.987Z,38.98
2024-03-09T22:17:05.867Z,39.10
2024-03-09T22:19:52.024Z,38.98
2024-03-09T22:22:37.207Z,38.52
2024-03-09T22:25:27.762Z,38.28
2024-03-09T22:28:14.107Z,38.47
2024-03-09T22:30:59.576Z,38.39
2024-03-09T22:33:45.279Z,38.36
2024-03-09T22:36:30.490Z,38.39
2024-03-09T22:39:17.366Z,38.61
2024-03-09T22:42:05.633Z,38.30
2024-03-09T22:44:51.420Z,38.13
2024-03-09T22:47:37.278Z,38.49
2024-03-09T22:50:25.491Z,38.40
2024-03-09T22:53:11.901Z,38.54
2024-03-09T22:55:58.639Z,38.77
2024-03-09T22:58:44.034Z,39.14
2024-03-09T23:01:47.072Z,38.84
2024-03-09T23:04:32.840Z,38.93
2024-03-09T23:07:18.433Z,39.11
2024-03-09T23:10:05.101Z,38.92
2024-03-09T23:12:52.972Z,38.97
2024-03-09T23:15:38.638Z,38.98
2024-03-09T23:18:24.699Z,39.01
2024-03-09T23:21:10.983Z,38.92
2024-03-09T23:23:56.327Z,38.93
2024-03-09T23:26:41.638Z,38.90
2024-03-09T23:29:34.073Z,39.12
2024-03-09T23:32:20.494Z,39.22
2024-03-09T23:35:10.459Z,39.16
2024-03-09T23:37:56.365Z,39.22
2024-03-09T23:40:42.115Z,39.20
2024-03-09T23:43:29.242Z,39.21
2024-03-09T23:46:14.941Z,39.09
2024-03-09T23:49:01.335Z,39.10
2024-03-09T23:51:46.863Z,39.12
2024-03-09T23:54:32.380Z,39.20
2024-03-09T23:57:17.745Z,39.30
